Florence Regional Airport
KFLO : now visible

Airfield :











YOU CAN JOIN US ON...

 
LOGIN :

Register | Disclaimer

   EN    FR    IT 

 









Legend :    VFR   Marginal VFR   IFR   Intensive IFR   Very Intensive IFR
Visi :
Ceiling :
>= 8 km
>= 3000ft
5 to 8 km
1000 to 3000 ft
1500m to 5 km
500 to 1000 ft
800 to 1500m
200 to 500 ft
< 800m
< 200 ft
Symbols :   Thunderstorms  Fog  Heavy snow  Heavy precipitations  Wind > 20 kt






- Airport Elevation : 146 ft
- IATA code : FLO


KFLO - Florence Regional

CURRENT METAR :
  • 231653Z VRB03KT 10SM FEW040 SCT055 BKN065 31/21 A3000 RMK AO2 SLP157 T03060211

EXPIRED METARs :
  • 231553Z 30007KT 10SM SCT055 29/21 A3002 RMK AO2 SLP163 T02940211
  • 231453Z 10SM CLR 28/21 A3003 RMK AO2 SLP165 T02830211 58006
  • 231353Z 22009KT 10SM CLR 26/20 A3003 RMK AO2 SLP167 T02610200

TAF KFLO
Valid from the 23 at 18:00 until the 24 at 18:00 UTC


231720Z 2318/2418 25007KT P6SM SCT045
FM232300 17004KT P6SM SCT050
PROB30 2402/2406 5SM TSRA BKN050CB
FM241000 23003KT P6SM BKN009
FM241300 25004KT P6SM SCT012
FM241400 26006KT P6SM SCT035
KZJX FIR / North America



MET'MAP, your aeronautical weather chart ! - Copyright ORBIFLY December 2007 - Disclaimer

ORBIFLY MET'MAP TEAM :

Programming & Development : Alexandra Zaïnal
Original concept : Baudouin d'Aumeries
Technical & hardware support : Manuel Goepfert
Assistance : Marc-Olivier Méhu




SOURCES & CREDITS :

   NOAA       Earth
Advisory